createdAt,value
2023-02-17T00:00:28.572Z,21.83
2023-02-17T00:01:33.348Z,20.00
2023-02-17T00:02:35.623Z,20.15
2023-02-17T00:03:37.814Z,21.77
2023-02-17T00:04:39.713Z,22.33
2023-02-17T00:05:41.594Z,19.88
2023-02-17T00:06:43.416Z,19.55
2023-02-17T00:07:45.286Z,19.00
2023-02-17T00:08:47.631Z,19.10
2023-02-17T00:09:49.490Z,20.23
2023-02-17T00:10:58.788Z,19.52
2023-02-17T00:12:00.751Z,18.85
2023-02-17T00:13:02.600Z,18.20
2023-02-17T00:14:04.619Z,18.92
2023-02-17T00:15:08.375Z,18.42
2023-02-17T00:16:17.743Z,18.23
2023-02-17T00:17:19.693Z,17.92
2023-02-17T00:18:22.623Z,18.02
2023-02-17T00:19:25.235Z,18.52
2023-02-17T00:20:29.440Z,17.25
2023-02-17T00:21:32.490Z,16.67
2023-02-17T00:22:34.342Z,17.80
2023-02-17T00:23:36.155Z,17.33
2023-02-17T00:24:39.453Z,17.13
2023-02-17T00:25:41.439Z,18.17
2023-02-17T00:26:43.812Z,17.27
2023-02-17T00:27:45.654Z,16.17
2023-02-17T00:28:48.811Z,16.08
2023-02-17T00:29:50.676Z,15.75
2023-02-17T00:30:52.576Z,16.98
2023-02-17T00:31:55.114Z,16.17
2023-02-17T00:32:57.084Z,16.80
2023-02-17T00:33:58.949Z,16.55
2023-02-17T00:35:00.800Z,17.63
2023-02-17T00:36:11.826Z,15.80
2023-02-17T00:37:13.697Z,17.30
2023-02-17T00:38:15.589Z,16.63
2023-02-17T00:39:17.962Z,16.80
2023-02-17T00:40:19.883Z,15.50
2023-02-17T00:41:22.103Z,16.05
2023-02-17T00:42:23.922Z,17.10
2023-02-17T00:43:26.286Z,16.48
2023-02-17T00:44:28.108Z,17.77
2023-02-17T00:45:29.992Z,17.85
2023-02-17T00:46:32.224Z,17.60
2023-02-17T00:47:34.096Z,17.35
2023-02-17T00:48:36.073Z,16.75
2023-02-17T00:49:37.992Z,17.67
2023-02-17T00:50:39.896Z,16.92
2023-02-17T00:51:41.854Z,17.67
2023-02-17T00:52:43.683Z,16.60
2023-02-17T00:53:46.002Z,17.25
2023-02-17T00:54:47.863Z,17.17
2023-02-17T00:55:50.330Z,16.33
2023-02-17T00:56:52.355Z,16.98
2023-02-17T00:57:54.291Z,16.50
2023-02-17T00:58:56.105Z,16.88
2023-02-17T00:59:58.585Z,16.58
2023-02-17T01:01:00.844Z,16.77
2023-02-17T01:02:02.855Z,15.98
2023-02-17T01:03:05.186Z,17.25
2023-02-17T01:04:07.277Z,15.27
2023-02-17T01:05:09.230Z,15.77
2023-02-17T01:06:22.186Z,17.42
2023-02-17T01:07:24.025Z,15.95
2023-02-17T01:08:26.684Z,17.33
2023-02-17T01:09:28.564Z,16.67
2023-02-17T01:10:30.579Z,15.15
2023-02-17T01:11:34.009Z,16.27
2023-02-17T01:12:35.826Z,16.88
2023-02-17T01:13:37.708Z,15.75
2023-02-17T01:14:39.549Z,16.73
2023-02-17T01:15:44.754Z,15.65
2023-02-17T01:16:48.886Z,16.55
2023-02-17T01:17:50.720Z,15.60
2023-02-17T01:18:52.938Z,17.10
2023-02-17T01:19:54.800Z,16.85
2023-02-17T01:20:56.643Z,17.63
2023-02-17T01:21:58.474Z,16.20
2023-02-17T01:23:00.317Z,17.17
2023-02-17T01:24:05.260Z,15.20
2023-02-17T01:25:07.556Z,16.35
2023-02-17T01:26:16.881Z,15.68
2023-02-17T01:27:18.810Z,16.33
2023-02-17T01:28:22.228Z,16.48
2023-02-17T01:29:24.117Z,17.05
2023-02-17T01:30:26.036Z,16.23
2023-02-17T01:31:28.310Z,17.35
2023-02-17T01:32:30.259Z,16.38
2023-02-17T01:33:32.115Z,15.98
2023-02-17T01:34:34.180Z,16.17
2023-02-17T01:35:36.012Z,16.45
2023-02-17T01:36:37.866Z,17.17
2023-02-17T01:37:39.681Z,17.25
2023-02-17T01:38:41.642Z,16.40
2023-02-17T01:39:43.566Z,16.00
2023-02-17T01:40:48.724Z,16.27
2023-02-17T01:41:50.540Z,16.88
2023-02-17T01:42:52.388Z,16.85
2023-02-17T01:44:19.079Z,15.02
2023-02-17T01:45:20.978Z,15.55
2023-02-17T01:46:22.907Z,16.70
2023-02-17T01:47:24.761Z,15.27
2023-02-17T01:48:33.938Z,15.80
2023-02-17T01:49:41.645Z,16.30
2023-02-17T01:50:59.749Z,15.80
2023-02-17T01:52:27.734Z,15.90
2023-02-17T01:53:43.914Z,14.40
2023-02-17T01:55:16.625Z,15.55
2023-02-17T01:56:19.028Z,15.23
2023-02-17T01:57:24.950Z,15.75
2023-02-17T01:58:28.124Z,14.82
2023-02-17T01:59:30.666Z,15.27
2023-02-17T02:00:33.894Z,15.77
2023-02-17T02:01:36.266Z,15.73
2023-02-17T02:02:40.077Z,15.20
2023-02-17T02:03:42.183Z,15.25
2023-02-17T02:04:47.684Z,15.77
2023-02-17T02:05:49.687Z,15.32
2023-02-17T02:06:51.552Z,14.98
2023-02-17T02:07:53.820Z,15.23
2023-02-17T02:09:08.901Z,15.18
2023-02-17T02:10:13.269Z,15.18
2023-02-17T02:11:15.098Z,16.55
2023-02-17T02:12:29.828Z,15.35
2023-02-17T02:13:31.681Z,14.77
2023-02-17T02:14:33.534Z,15.52
2023-02-17T02:15:46.257Z,15.93
2023-02-17T02:17:14.007Z,15.65
2023-02-17T02:18:32.432Z,13.73
2023-02-17T02:20:02.428Z,14.13
2023-02-17T02:21:30.432Z,14.35
2023-02-17T02:23:01.082Z,14.90
2023-02-17T02:24:15.156Z,15.75
2023-02-17T02:25:54.316Z,15.00
2023-02-17T02:27:14.086Z,15.73
2023-02-17T02:28:43.071Z,16.10
2023-02-17T02:30:00.106Z,15.02
2023-02-17T02:34:03.487Z,13.80
2023-02-17T02:35:26.594Z,15.35
2023-02-17T02:36:43.619Z,13.70
2023-02-17T02:38:13.258Z,14.93
2023-02-17T02:39:18.666Z,13.70
2023-02-17T02:40:24.380Z,13.65
2023-02-17T02:41:50.397Z,15.10
2023-02-17T02:42:53.281Z,14.85
2023-02-17T02:43:55.326Z,14.95
2023-02-17T02:44:57.208Z,14.65
2023-02-17T02:45:59.112Z,15.13
2023-02-17T02:47:26.593Z,13.88
2023-02-17T02:48:28.511Z,14.57
2023-02-17T02:49:33.282Z,14.38
2023-02-17T02:50:53.985Z,15.65
2023-02-17T02:52:23.663Z,13.68
2023-02-17T02:53:37.937Z,15.05
2023-02-17T02:55:00.745Z,14.88
2023-02-17T02:56:30.955Z,14.48
2023-02-17T02:57:38.892Z,14.75
2023-02-17T02:58:55.399Z,15.73
2023-02-17T03:00:20.689Z,16.20
2023-02-17T03:02:03.031Z,16.25
2023-02-17T03:03:16.050Z,15.07
2023-02-17T03:04:26.716Z,16.20
2023-02-17T03:05:54.913Z,15.50
2023-02-17T03:07:08.914Z,14.65
2023-02-17T03:08:25.789Z,16.02
2023-02-17T03:09:28.983Z,15.82
2023-02-17T03:10:31.053Z,16.40
2023-02-17T03:11:33.096Z,15.70
2023-02-17T03:12:38.031Z,16.23
2023-02-17T03:13:41.085Z,16.83
2023-02-17T03:14:44.049Z,15.88
2023-02-17T03:15:47.280Z,17.30
2023-02-17T03:16:52.219Z,16.98
2023-02-17T03:17:59.773Z,16.65
2023-02-17T03:19:01.611Z,17.52
2023-02-17T03:20:05.018Z,16.38
2023-02-17T03:21:14.156Z,18.02
2023-02-17T03:22:33.839Z,17.20
2023-02-17T03:23:36.223Z,18.20
2023-02-17T03:24:38.174Z,19.25
2023-02-17T03:25:40.706Z,17.67
2023-02-17T03:26:42.572Z,17.77
2023-02-17T03:27:44.470Z,18.00
2023-02-17T03:28:46.319Z,17.25
2023-02-17T03:29:48.256Z,17.77
2023-02-17T03:30:50.149Z,17.42
2023-02-17T03:31:52.075Z,16.98
2023-02-17T03:32:54.489Z,16.60
2023-02-17T03:33:56.862Z,17.13
2023-02-17T03:34:59.015Z,18.90
2023-02-17T03:36:00.892Z,17.67
2023-02-17T03:37:02.754Z,17.88
2023-02-17T03:38:04.703Z,18.27
2023-02-17T03:39:06.538Z,18.02
2023-02-17T03:40:09.948Z,17.75
2023-02-17T03:41:11.902Z,17.80
2023-02-17T03:42:14.202Z,17.58
2023-02-17T03:43:17.897Z,17.80
2023-02-17T03:44:20.162Z,15.32
2023-02-17T03:45:22.088Z,17.08
2023-02-17T03:46:23.994Z,15.40
2023-02-17T03:47:25.936Z,15.80
2023-02-17T03:48:27.809Z,17.58
2023-02-17T03:49:29.746Z,16.55
2023-02-17T03:50:31.837Z,17.30
2023-02-17T03:51:34.117Z,17.02
2023-02-17T03:52:36.037Z,18.35
2023-02-17T03:53:38.404Z,17.77
2023-02-17T03:54:40.305Z,17.45
2023-02-17T03:55:42.176Z,17.75
2023-02-17T03:56:44.055Z,17.25
2023-02-17T03:57:45.904Z,16.60
2023-02-17T03:58:47.799Z,18.17
2023-02-17T03:59:49.680Z,15.40
2023-02-17T04:00:51.730Z,18.63
2023-02-17T04:01:53.614Z,18.17
2023-02-17T04:02:57.144Z,16.80
2023-02-17T04:03:59.018Z,18.27
2023-02-17T04:05:00.882Z,17.17
2023-02-17T04:06:03.558Z,18.55
2023-02-17T04:07:05.702Z,18.38
2023-02-17T04:08:07.519Z,19.38
2023-02-17T04:09:09.540Z,17.58
2023-02-17T04:10:11.565Z,18.17
2023-02-17T04:11:13.597Z,18.63
2023-02-17T04:12:15.473Z,17.15
2023-02-17T04:13:17.328Z,19.77
2023-02-17T04:14:19.174Z,20.10
2023-02-17T04:15:21.067Z,18.35
2023-02-17T04:16:23.079Z,17.95
2023-02-17T04:17:24.939Z,18.73
2023-02-17T04:18:27.064Z,19.38
2023-02-17T04:19:28.933Z,19.67
2023-02-17T04:20:30.801Z,18.27
2023-02-17T04:21:32.942Z,18.30
2023-02-17T04:22:34.854Z,17.90
2023-02-17T04:23:37.355Z,19.50
2023-02-17T04:24:39.581Z,18.88
2023-02-17T04:25:42.960Z,20.63
2023-02-17T04:26:44.817Z,19.02
2023-02-17T04:27:46.696Z,18.00
2023-02-17T04:28:48.568Z,19.40
2023-02-17T04:29:51.501Z,20.92
2023-02-17T04:30:53.481Z,20.13
2023-02-17T04:31:55.587Z,18.98
2023-02-17T04:32:58.304Z,17.92
2023-02-17T04:34:00.189Z,20.33
2023-02-17T04:35:02.010Z,18.73
2023-02-17T04:36:04.713Z,19.58
2023-02-17T04:37:07.732Z,18.55
2023-02-17T04:38:10.685Z,18.92
2023-02-17T04:39:12.691Z,22.10
2023-02-17T04:40:14.850Z,19.27
2023-02-17T04:41:16.934Z,21.27
2023-02-17T04:42:18.756Z,20.13
2023-02-17T04:43:20.619Z,20.73
2023-02-17T04:44:22.517Z,19.13
2023-02-17T04:45:24.532Z,22.83
2023-02-17T04:46:26.504Z,19.95
2023-02-17T04:47:28.713Z,22.30
2023-02-17T04:48:30.814Z,21.48
2023-02-17T04:49:32.701Z,19.55
2023-02-17T04:50:34.528Z,21.60
2023-02-17T04:51:36.510Z,20.42
2023-02-17T04:52:38.734Z,21.08
2023-02-17T04:53:40.593Z,20.73
2023-02-17T04:54:42.398Z,22.30
2023-02-17T04:55:44.332Z,23.40
2023-02-17T04:56:46.304Z,22.77
2023-02-17T04:57:48.301Z,20.23
2023-02-17T04:58:50.152Z,21.52
2023-02-17T04:59:52.028Z,20.92
2023-02-17T05:00:53.929Z,20.02
2023-02-17T05:01:55.904Z,23.73
2023-02-17T05:02:57.833Z,22.70
2023-02-17T05:03:59.894Z,21.33
2023-02-17T05:05:01.870Z,21.48
2023-02-17T05:06:04.185Z,22.88
2023-02-17T05:07:06.270Z,21.42
2023-02-17T05:08:08.586Z,23.60
2023-02-17T05:09:10.466Z,22.17
2023-02-17T05:10:14.275Z,21.70
2023-02-17T05:11:16.434Z,22.10
2023-02-17T05:12:18.448Z,23.60
2023-02-17T05:13:20.391Z,23.52
2023-02-17T05:14:22.292Z,22.52
2023-02-17T05:15:24.198Z,22.80
2023-02-17T05:16:26.097Z,23.60
2023-02-17T05:17:27.982Z,23.15
2023-02-17T05:18:29.872Z,25.17
2023-02-17T05:19:31.922Z,22.35
2023-02-17T05:20:33.816Z,25.88
2023-02-17T05:21:35.737Z,25.00
2023-02-17T05:22:37.887Z,23.48
2023-02-17T05:23:41.371Z,24.92
2023-02-17T05:24:43.371Z,23.27
2023-02-17T05:25:45.318Z,21.67
2023-02-17T05:26:47.257Z,23.67
2023-02-17T05:27:49.219Z,21.52
2023-02-17T05:28:51.349Z,22.90
2023-02-17T05:29:53.199Z,22.17
2023-02-17T05:30:55.127Z,24.33
2023-02-17T05:31:57.045Z,23.77
2023-02-17T05:32:59.018Z,23.52
2023-02-17T05:34:01.118Z,23.38
2023-02-17T05:35:03.088Z,25.10
2023-02-17T05:36:08.253Z,24.23
2023-02-17T05:37:10.892Z,24.20
2023-02-17T05:38:12.737Z,25.08
2023-02-17T05:39:14.704Z,23.95
2023-02-17T05:40:16.646Z,29.17
2023-02-17T05:41:19.399Z,24.95
2023-02-17T05:42:21.271Z,22.70
2023-02-17T05:43:23.355Z,22.90
2023-02-17T05:44:25.281Z,22.80
2023-02-17T05:45:27.122Z,24.83
2023-02-17T05:46:29.010Z,24.70
2023-02-17T05:47:30.978Z,24.50
2023-02-17T05:48:33.516Z,25.58
2023-02-17T05:49:35.462Z,25.30
2023-02-17T05:50:38.300Z,25.70
2023-02-17T05:51:40.704Z,22.05
2023-02-17T05:52:42.616Z,25.05
2023-02-17T05:53:45.193Z,24.55
2023-02-17T05:54:47.113Z,25.70
2023-02-17T05:55:48.983Z,24.67
2023-02-17T05:56:50.827Z,28.65
2023-02-17T05:57:52.676Z,24.50
2023-02-17T05:58:54.691Z,23.50
2023-02-17T05:59:56.574Z,26.20
2023-02-17T06:00:58.418Z,25.17
2023-02-17T06:02:00.237Z,26.40
2023-02-17T06:03:02.155Z,27.48
2023-02-17T06:04:05.171Z,29.23
2023-02-17T06:05:08.503Z,24.23
2023-02-17T06:06:10.495Z,25.45
2023-02-17T06:07:12.339Z,27.38
2023-02-17T06:08:14.167Z,25.85
2023-02-17T06:09:16.050Z,25.30
2023-02-17T06:10:17.969Z,23.20
2023-02-17T06:11:19.791Z,26.67
2023-02-17T06:12:21.634Z,24.08
2023-02-17T06:13:23.498Z,27.27
2023-02-17T06:14:25.390Z,26.50
2023-02-17T06:15:27.239Z,27.88
2023-02-17T06:16:29.248Z,24.80
2023-02-17T06:17:31.191Z,24.25
2023-02-17T06:18:33.146Z,26.60
2023-02-17T06:19:35.042Z,27.77
2023-02-17T06:20:36.880Z,25.58
2023-02-17T06:21:38.793Z,26.30
2023-02-17T06:22:42.554Z,24.10
2023-02-17T06:23:44.464Z,26.60
2023-02-17T06:24:46.394Z,25.85
2023-02-17T06:25:48.265Z,26.00
2023-02-17T06:26:50.202Z,28.17
2023-02-17T06:27:52.087Z,28.08
2023-02-17T06:28:53.943Z,31.70
2023-02-17T06:29:55.875Z,27.17
2023-02-17T06:30:57.960Z,30.75
2023-02-17T06:31:59.844Z,27.95
2023-02-17T06:33:01.804Z,33.20
2023-02-17T06:34:06.360Z,26.80
2023-02-17T06:35:08.628Z,27.08
2023-02-17T06:36:10.542Z,29.83
2023-02-17T06:37:12.419Z,29.05
2023-02-17T06:38:14.381Z,24.88
2023-02-17T06:39:16.298Z,26.60
2023-02-17T06:40:18.479Z,26.05
2023-02-17T06:41:20.378Z,26.13
2023-02-17T06:42:22.384Z,25.15
2023-02-17T06:43:24.212Z,25.70
2023-02-17T06:44:26.256Z,28.70
2023-02-17T06:45:28.292Z,30.88
2023-02-17T06:46:30.395Z,35.47
2023-02-17T06:47:33.254Z,29.42
2023-02-17T06:48:35.372Z,30.15
2023-02-17T06:49:38.703Z,30.58
2023-02-17T06:50:41.826Z,29.25
2023-02-17T06:51:43.734Z,28.25
2023-02-17T06:52:45.593Z,29.67
2023-02-17T06:53:47.553Z,31.17
2023-02-17T06:54:49.375Z,28.35
2023-02-17T06:55:51.449Z,27.85
2023-02-17T06:56:53.304Z,28.85
2023-02-17T06:57:55.132Z,31.80
2023-02-17T06:58:56.956Z,32.38
2023-02-17T06:59:59.049Z,34.45
2023-02-17T07:01:01.146Z,35.58
2023-02-17T07:02:03.117Z,29.80
2023-02-17T07:03:05.118Z,27.23
2023-02-17T07:04:07.080Z,28.90
2023-02-17T07:05:09.131Z,29.25
2023-02-17T07:06:11.036Z,26.92
2023-02-17T07:07:13.147Z,27.45
2023-02-17T07:08:15.075Z,31.73
2023-02-17T07:09:17.037Z,27.35
2023-02-17T07:10:19.357Z,24.92
2023-02-17T07:11:21.256Z,24.23
2023-02-17T07:12:23.108Z,28.35
2023-02-17T07:13:24.947Z,29.40
2023-02-17T07:14:27.521Z,28.08
2023-02-17T07:15:29.375Z,29.38
2023-02-17T07:16:31.362Z,26.17
2023-02-17T07:17:33.245Z,26.15
2023-02-17T07:18:35.500Z,25.25
2023-02-17T07:19:37.787Z,25.92
2023-02-17T07:20:39.632Z,26.23
2023-02-17T07:21:41.887Z,26.05
2023-02-17T07:22:43.711Z,25.83
2023-02-17T07:23:45.597Z,24.77
2023-02-17T07:24:47.489Z,26.42
2023-02-17T07:25:49.313Z,25.52
2023-02-17T07:26:51.831Z,27.73
2023-02-17T07:27:59.825Z,25.88
2023-02-17T07:29:01.894Z,26.52
2023-02-17T07:30:04.896Z,25.10
2023-02-17T07:31:16.324Z,26.75
2023-02-17T07:32:18.310Z,27.20
2023-02-17T07:33:20.129Z,26.20
2023-02-17T07:34:22.238Z,26.02
2023-02-17T07:35:24.223Z,28.38
2023-02-17T07:36:26.343Z,29.58
2023-02-17T07:37:28.212Z,28.27
2023-02-17T07:38:30.839Z,26.10
2023-02-17T07:39:34.069Z,26.27
2023-02-17T07:40:36.147Z,28.27
2023-02-17T07:41:38.161Z,28.23
2023-02-17T07:42:40.033Z,29.77
2023-02-17T07:43:42.418Z,28.98
2023-02-17T07:44:44.272Z,29.05
2023-02-17T07:45:46.211Z,28.35
2023-02-17T07:46:48.089Z,28.58
2023-02-17T07:47:49.985Z,30.52
2023-02-17T07:48:51.833Z,30.27
2023-02-17T07:49:53.700Z,33.25
2023-02-17T07:50:55.625Z,29.98
2023-02-17T07:51:57.441Z,29.50
2023-02-17T07:52:59.405Z,30.30
2023-02-17T07:54:01.960Z,28.13
2023-02-17T07:55:04.231Z,27.58
2023-02-17T07:56:08.967Z,28.77
2023-02-17T07:57:10.890Z,29.10
2023-02-17T07:58:12.757Z,29.73
2023-02-17T07:59:15.258Z,28.08
2023-02-17T08:00:17.874Z,28.77
2023-02-17T08:01:22.914Z,27.77
2023-02-17T08:02:24.786Z,28.13
2023-02-17T08:03:26.675Z,28.13
2023-02-17T08:04:28.567Z,28.20
2023-02-17T08:05:30.529Z,28.80
2023-02-17T08:06:32.597Z,29.15
2023-02-17T08:07:34.973Z,27.65
2023-02-17T08:08:55.157Z,29.13
2023-02-17T08:10:15.605Z,27.85
2023-02-17T08:11:36.485Z,29.92
2023-02-17T08:12:50.356Z,27.98
2023-02-17T08:13:52.158Z,31.35
2023-02-17T08:14:57.864Z,30.85
2023-02-17T08:15:59.691Z,30.20
2023-02-17T08:17:01.694Z,30.38
2023-02-17T08:18:05.029Z,29.13
2023-02-17T08:19:07.672Z,31.55
2023-02-17T08:20:10.185Z,29.35
2023-02-17T08:21:11.974Z,31.20
2023-02-17T08:22:13.984Z,30.48
2023-02-17T08:23:15.852Z,30.90
2023-02-17T08:24:20.133Z,31.35
2023-02-17T08:25:22.062Z,29.15
2023-02-17T08:26:24.409Z,30.83
2023-02-17T08:27:26.385Z,32.03
2023-02-17T08:28:28.335Z,31.73
2023-02-17T08:29:31.237Z,30.98
2023-02-17T08:30:36.864Z,31.95
2023-02-17T08:31:39.327Z,27.75
2023-02-17T08:32:41.235Z,28.95
2023-02-17T08:33:43.245Z,28.88
2023-02-17T08:34:45.098Z,29.23
2023-02-17T08:35:47.226Z,31.08
2023-02-17T08:36:49.116Z,28.90
2023-02-17T08:37:51.036Z,27.75
2023-02-17T08:38:53.928Z,30.67
2023-02-17T08:39:56.124Z,27.33
2023-02-17T08:40:58.100Z,27.92
2023-02-17T08:42:00.032Z,28.05
2023-02-17T08:43:03.561Z,28.48
2023-02-17T08:44:15.620Z,26.80
2023-02-17T08:45:17.769Z,27.98
2023-02-17T08:46:20.122Z,27.90
2023-02-17T08:47:22.008Z,27.25
2023-02-17T08:48:24.165Z,26.85
2023-02-17T08:49:28.557Z,27.48
2023-02-17T08:50:30.787Z,28.08
2023-02-17T08:51:33.314Z,28.20
2023-02-17T08:52:35.669Z,28.90
2023-02-17T08:53:37.540Z,30.80
2023-02-17T08:54:39.465Z,28.88
2023-02-17T08:55:49.198Z,27.90
2023-02-17T08:56:51.708Z,26.95
2023-02-17T08:57:54.093Z,26.65
2023-02-17T08:58:56.271Z,27.13
2023-02-17T08:59:58.364Z,25.73
2023-02-17T09:01:00.330Z,28.63
2023-02-17T09:02:02.686Z,26.98
2023-02-17T09:03:04.831Z,25.80
2023-02-17T09:04:08.802Z,25.33
2023-02-17T09:05:12.668Z,24.27
2023-02-17T09:06:16.061Z,25.48
2023-02-17T09:07:18.187Z,24.40
2023-02-17T09:08:20.061Z,25.15
2023-02-17T09:09:23.836Z,26.17
2023-02-17T09:10:25.702Z,24.63
2023-02-17T09:11:27.926Z,25.23
2023-02-17T09:12:30.964Z,22.95
2023-02-17T09:13:33.265Z,24.98
2023-02-17T09:14:35.366Z,24.73
2023-02-17T09:15:37.328Z,26.13
2023-02-17T09:16:41.408Z,25.45
2023-02-17T09:17:43.618Z,25.83
2023-02-17T09:18:45.560Z,27.00
2023-02-17T09:19:48.413Z,30.52
2023-02-17T09:20:50.525Z,29.52
2023-02-17T09:21:52.760Z,29.10
2023-02-17T09:22:54.781Z,25.38
2023-02-17T09:23:57.544Z,25.42
2023-02-17T09:24:59.630Z,26.00
2023-02-17T09:26:07.239Z,25.45
2023-02-17T09:27:09.637Z,24.48
2023-02-17T09:28:13.911Z,24.05
2023-02-17T09:29:15.767Z,23.35
2023-02-17T09:30:18.116Z,23.92
2023-02-17T09:31:25.756Z,24.40
2023-02-17T09:32:27.852Z,24.00
2023-02-17T09:33:29.917Z,23.70
2023-02-17T09:34:33.869Z,24.23
2023-02-17T09:35:37.658Z,23.27
2023-02-17T09:36:41.339Z,23.58
2023-02-17T09:37:43.750Z,24.65
2023-02-17T09:38:46.431Z,25.80
2023-02-17T09:39:49.427Z,23.55
2023-02-17T09:40:52.847Z,23.67
2023-02-17T09:41:55.541Z,24.13
2023-02-17T09:42:57.570Z,24.92
2023-02-17T09:43:59.952Z,23.77
2023-02-17T09:45:13.063Z,23.45
2023-02-17T09:46:27.301Z,24.35
2023-02-17T09:47:39.128Z,23.83
2023-02-17T09:48:41.953Z,24.48
2023-02-17T09:49:48.491Z,24.77
2023-02-17T09:51:00.140Z,24.25
2023-02-17T09:52:18.133Z,28.00
2023-02-17T09:53:45.044Z,25.30
2023-02-17T09:55:13.636Z,25.27
2023-02-17T09:56:22.270Z,25.75
2023-02-17T09:57:29.384Z,24.33
2023-02-17T09:58:40.401Z,24.30
2023-02-17T09:59:48.639Z,26.33
2023-02-17T10:01:02.565Z,24.52
2023-02-17T10:02:23.936Z,27.38
2023-02-17T10:03:36.162Z,24.58
2023-02-17T10:04:44.263Z,25.35
2023-02-17T10:05:55.178Z,25.25
2023-02-17T10:07:06.051Z,26.40
2023-02-17T10:08:25.201Z,25.88
2023-02-17T10:09:56.056Z,26.38
2023-02-17T10:11:22.152Z,26.73
2023-02-17T10:12:33.627Z,26.70
2023-02-17T10:13:40.167Z,27.40
2023-02-17T10:15:05.809Z,28.92
2023-02-17T10:16:11.999Z,29.77
2023-02-17T10:17:34.584Z,29.30
2023-02-17T10:19:01.012Z,27.38
2023-02-17T10:20:39.331Z,27.60
2023-02-17T10:21:48.365Z,28.67
2023-02-17T10:23:01.703Z,29.08
2023-02-17T10:24:04.778Z,28.10
2023-02-17T10:25:22.266Z,26.25
2023-02-17T10:26:53.707Z,28.85
2023-02-17T10:28:43.485Z,26.40
2023-02-17T10:30:26.503Z,26.35
2023-02-17T10:31:45.732Z,26.20
2023-02-17T10:33:13.281Z,25.88
2023-02-17T10:34:44.871Z,25.90
2023-02-17T10:35:51.414Z,27.73
2023-02-17T10:37:27.495Z,28.85
2023-02-17T10:38:51.943Z,27.40
2023-02-17T10:39:57.213Z,27.65
2023-02-17T10:41:01.978Z,28.30
2023-02-17T10:42:05.028Z,27.73
2023-02-17T10:43:10.087Z,27.60
2023-02-17T10:44:23.205Z,28.05
2023-02-17T10:45:33.747Z,28.10
2023-02-17T10:46:35.754Z,28.05
2023-02-17T10:47:40.376Z,29.83
2023-02-17T10:48:54.396Z,30.02
2023-02-17T10:49:58.178Z,28.25
2023-02-17T10:51:01.819Z,28.60
2023-02-17T10:52:15.588Z,29.83
2023-02-17T10:53:22.832Z,31.88
2023-02-17T10:54:38.514Z,30.58
2023-02-17T10:55:52.762Z,26.45
2023-02-17T10:56:57.718Z,25.90
2023-02-17T10:58:12.355Z,26.40
2023-02-17T10:59:30.058Z,25.05
2023-02-17T11:00:33.135Z,25.70
2023-02-17T11:01:37.217Z,24.80
2023-02-17T11:02:44.726Z,23.90
2023-02-17T11:03:46.812Z,25.42
2023-02-17T11:04:51.612Z,25.67
2023-02-17T11:06:06.607Z,26.27
2023-02-17T11:07:14.190Z,27.20
2023-02-17T11:08:45.796Z,26.40
2023-02-17T11:09:51.397Z,25.25
2023-02-17T11:11:23.096Z,26.33
2023-02-17T11:14:03.266Z,22.45
2023-02-17T11:15:17.303Z,23.38
2023-02-17T11:16:33.472Z,24.17
2023-02-17T11:17:41.086Z,22.35
2023-02-17T11:18:48.970Z,23.77
2023-02-17T11:20:03.788Z,24.50
2023-02-17T11:21:11.626Z,25.33
2023-02-17T11:22:41.626Z,26.15
2023-02-17T11:24:00.554Z,25.08
2023-02-17T11:25:25.148Z,27.42
2023-02-17T11:26:32.993Z,26.52
2023-02-17T11:27:34.916Z,27.95
2023-02-17T11:28:37.342Z,27.67
2023-02-17T11:29:39.297Z,27.88
2023-02-17T11:30:52.131Z,29.38
2023-02-17T11:32:08.460Z,29.08
2023-02-17T11:33:22.798Z,29.23
2023-02-17T11:34:28.566Z,27.98
2023-02-17T11:35:36.160Z,28.85
2023-02-17T11:36:38.106Z,28.58
2023-02-17T11:37:43.825Z,28.17
2023-02-17T11:38:46.229Z,28.45
2023-02-17T11:39:50.360Z,27.52
2023-02-17T11:41:00.877Z,28.98
2023-02-17T11:42:02.789Z,28.33
2023-02-17T11:43:05.705Z,28.55
2023-02-17T11:44:10.806Z,28.85
2023-02-17T11:45:22.229Z,29.30
2023-02-17T11:46:32.876Z,29.88
2023-02-17T11:47:41.983Z,29.30
2023-02-17T11:49:17.146Z,27.48
2023-02-17T11:50:40.909Z,28.75
2023-02-17T11:52:11.481Z,28.45
2023-02-17T11:53:25.109Z,27.92
2023-02-17T11:54:36.131Z,29.65
2023-02-17T11:55:56.925Z,28.70
2023-02-17T11:57:23.709Z,25.95
2023-02-17T11:58:34.041Z,26.48
2023-02-17T12:00:06.539Z,26.15
2023-02-17T12:01:45.557Z,25.85
2023-02-17T12:03:16.720Z,24.95
2023-02-17T12:04:30.289Z,25.65
2023-02-17T12:05:52.504Z,25.88
2023-02-17T12:07:22.088Z,24.83
2023-02-17T12:08:38.471Z,25.00
2023-02-17T12:09:57.846Z,24.58
2023-02-17T12:11:10.001Z,24.48
2023-02-17T12:12:40.215Z,24.27
2023-02-17T12:13:42.057Z,24.55
2023-02-17T12:15:05.155Z,26.60
2023-02-17T12:16:57.199Z,24.05
2023-02-17T12:18:15.272Z,21.88
2023-02-17T12:19:32.621Z,22.65
2023-02-17T12:20:50.685Z,22.30
2023-02-17T12:22:17.585Z,23.77
2023-02-17T12:24:00.961Z,23.30
2023-02-17T12:25:17.813Z,24.85
2023-02-17T12:26:46.188Z,25.50
2023-02-17T12:28:19.455Z,23.67
2023-02-17T12:29:34.296Z,22.42
2023-02-17T12:30:54.578Z,23.23
2023-02-17T12:31:56.723Z,21.80
2023-02-17T12:33:35.965Z,24.00
2023-02-17T12:34:59.539Z,21.15
2023-02-17T12:36:07.487Z,23.38
2023-02-17T12:37:20.956Z,22.20
2023-02-17T12:38:30.438Z,21.92
2023-02-17T12:39:42.359Z,23.48
2023-02-17T12:41:10.029Z,21.70
2023-02-17T12:42:26.618Z,21.02
2023-02-17T12:43:40.647Z,22.02
2023-02-17T12:44:46.252Z,22.65
2023-02-17T12:45:51.325Z,22.02
2023-02-17T12:46:57.500Z,22.90
2023-02-17T12:48:09.183Z,21.52
2023-02-17T12:49:23.361Z,22.33
2023-02-17T12:50:39.639Z,23.30
2023-02-17T12:51:44.217Z,22.73
2023-02-17T12:52:50.798Z,24.50
2023-02-17T12:54:08.070Z,24.27
2023-02-17T12:55:28.024Z,24.77
2023-02-17T12:56:47.784Z,23.95
2023-02-17T12:57:55.988Z,24.65
2023-02-17T12:59:21.894Z,24.38
2023-02-17T13:00:39.065Z,24.70
2023-02-17T13:01:49.493Z,25.40
2023-02-17T13:02:51.506Z,24.02
2023-02-17T13:03:53.599Z,24.85
2023-02-17T13:05:00.881Z,24.58
2023-02-17T13:06:32.346Z,24.52
2023-02-17T13:07:45.567Z,24.10
2023-02-17T13:08:56.202Z,24.50
2023-02-17T13:09:58.380Z,24.45
2023-02-17T13:11:12.248Z,24.63
2023-02-17T13:12:22.804Z,24.73
2023-02-17T13:13:32.488Z,25.30
2023-02-17T13:14:41.991Z,24.52
2023-02-17T13:15:46.603Z,24.25
2023-02-17T13:16:49.675Z,25.08
2023-02-17T13:18:27.343Z,24.92
2023-02-17T13:19:31.572Z,22.80
2023-02-17T13:20:55.972Z,22.35
2023-02-17T13:22:02.464Z,23.25
2023-02-17T13:23:26.043Z,22.70
2023-02-17T13:24:35.160Z,24.02
2023-02-17T13:25:37.903Z,24.77
2023-02-17T13:26:41.385Z,22.73
2023-02-17T13:27:43.209Z,24.95
2023-02-17T13:28:45.678Z,23.27
2023-02-17T13:29:59.607Z,24.42
2023-02-17T13:31:17.867Z,23.30
2023-02-17T13:32:28.627Z,23.75
2023-02-17T13:33:31.479Z,23.77
2023-02-17T13:34:37.673Z,24.05
2023-02-17T13:35:39.605Z,23.08
2023-02-17T13:36:41.639Z,23.83
2023-02-17T13:37:46.038Z,24.33
2023-02-17T13:39:08.428Z,24.35
2023-02-17T13:40:19.421Z,22.65
2023-02-17T13:41:21.217Z,23.40
2023-02-17T13:42:41.740Z,22.75
2023-02-17T13:43:43.713Z,23.63
2023-02-17T13:44:48.638Z,22.88
2023-02-17T13:45:57.147Z,23.48
2023-02-17T13:47:20.010Z,22.95
2023-02-17T13:48:21.832Z,20.95
2023-02-17T13:49:27.737Z,21.63
2023-02-17T13:50:34.860Z,21.25
2023-02-17T13:51:36.718Z,21.80
2023-02-17T13:52:38.579Z,21.45
2023-02-17T13:53:42.247Z,20.50
2023-02-17T13:54:55.286Z,21.60
2023-02-17T13:56:05.316Z,20.63
2023-02-17T13:57:21.984Z,20.95
2023-02-17T13:58:42.597Z,22.05
2023-02-17T13:59:44.418Z,21.50
2023-02-17T14:00:46.464Z,21.80
2023-02-17T14:01:48.498Z,21.70
2023-02-17T14:02:57.812Z,20.52
2023-02-17T14:04:00.250Z,21.27
2023-02-17T14:05:16.213Z,21.08
2023-02-17T14:06:33.756Z,21.05
2023-02-17T14:07:36.871Z,20.52
2023-02-17T14:08:41.098Z,22.52
2023-02-17T14:09:43.593Z,21.27
2023-02-17T14:10:46.241Z,23.13
2023-02-17T14:11:48.554Z,22.73
2023-02-17T14:12:50.993Z,21.30
2023-02-17T14:13:55.745Z,22.77
2023-02-17T14:14:57.715Z,21.42
2023-02-17T14:16:00.985Z,21.52
2023-02-17T14:17:34.122Z,22.02
2023-02-17T14:18:42.993Z,21.63
2023-02-17T14:19:47.416Z,22.83
2023-02-17T14:21:00.599Z,22.38
2023-02-17T14:22:05.270Z,22.35
2023-02-17T14:23:11.720Z,21.02
2023-02-17T14:24:34.507Z,18.92